Time;durP1;ratioP1;P1;durP2;ratioP2;P2;SDS_P1;SDS_P2;PMS_P1;PMS_P2;Temp;Humidity;BMP_temperature;BMP_pressure;BME280_temperature;BME280_humidity;BME280_pressure;Samples;Min_cycle;Max_cycle;Signal;HPM_P1;HPM_P2
2024/02/11 00:01:22;;;;;;;24.60;18.00;;;9.40;48.20;;;;;;5033219;28;20490;-70
2024/02/11 00:03:48;;;;;;;25.90;20.27;;;9.50;48.60;;;;;;5033384;28;20429;-71
2024/02/11 00:06:14;;;;;;;26.27;18.70;;;9.50;46.50;;;;;;5034056;28;20562;-71
2024/02/11 00:08:40;;;;;;;22.63;18.67;;;9.40;48.30;;;;;;5031832;28;20548;-70
2024/02/11 00:11:06;;;;;;;29.93;19.57;;;9.40;48.40;;;;;;5031718;28;20920;-69
2024/02/11 00:13:32;;;;;;;23.20;18.37;;;9.50;48.50;;;;;;5031303;28;20424;-70
2024/02/11 00:16:01;;;;;;;23.90;17.50;;;9.50;48.20;;;;;;5029956;28;20820;-69
2024/02/11 00:18:29;;;;;;;23.40;17.43;;;9.50;48.10;;;;;;5031036;28;20866;-68
2024/02/11 00:20:55;;;;;;;20.30;16.17;;;9.40;47.50;;;;;;5031228;28;20410;-68
2024/02/11 00:23:24;;;;;;;21.17;15.80;;;9.40;47.80;;;;;;5030127;28;20948;-69
2024/02/11 00:25:53;;;;;;;22.27;17.33;;;9.50;49.60;;;;;;5032416;28;20433;-68
2024/02/11 00:28:21;;;;;;;19.53;17.43;;;9.50;48.60;;;;;;5035086;28;20414;-69
2024/02/11 00:30:47;;;;;;;22.60;17.20;;;9.50;48.50;;;;;;5035353;28;20417;-69
2024/02/11 00:33:13;;;;;;;20.10;15.90;;;9.60;47.70;;;;;;5035411;28;20421;-69
2024/02/11 00:35:40;;;;;;;17.77;13.60;;;9.70;48.00;;;;;;5035543;28;20545;-69
2024/02/11 00:38:06;;;;;;;19.67;16.13;;;9.70;46.00;;;;;;5035087;28;20171;-68
2024/02/11 00:40:32;;;;;;;18.23;14.20;;;9.70;46.70;;;;;;5035230;28;20422;-69
2024/02/11 00:42:58;;;;;;;21.20;12.80;;;9.70;46.20;;;;;;5035431;28;20524;-69
2024/02/11 00:45:24;;;;;;;17.00;13.80;;;9.70;43.40;;;;;;5035269;28;20596;-70
2024/02/11 00:47:50;;;;;;;16.43;13.60;;;9.70;44.20;;;;;;5035147;28;20452;-69
2024/02/11 00:50:16;;;;;;;16.60;13.40;;;9.70;43.90;;;;;;5035056;28;20643;-70
2024/02/11 00:52:42;;;;;;;16.10;12.30;;;9.60;46.20;;;;;;5035173;28;20418;-71
2024/02/11 00:55:09;;;;;;;18.00;14.23;;;9.70;45.00;;;;;;5035032;28;20176;-68
2024/02/11 00:57:36;;;;;;;19.40;13.53;;;9.70;45.50;;;;;;5034736;28;20444;-68
2024/02/11 01:00:09;;;;;;;19.40;13.50;;;9.80;44.90;;;;;;5034695;28;20458;-70
2024/02/11 01:02:35;;;;;;;15.77;13.37;;;9.70;43.80;;;;;;5034897;28;20414;-68
2024/02/11 01:05:01;;;;;;;16.40;11.60;;;9.80;44.60;;;;;;5034734;28;20909;-68
2024/02/11 01:07:26;;;;;;;14.43;10.00;;;9.80;44.00;;;;;;5034427;28;20529;-68
2024/02/11 01:09:52;;;;;;;16.07;11.20;;;9.80;42.70;;;;;;5034353;28;20262;-70
2024/02/11 01:12:17;;;;;;;14.37;11.87;;;9.80;42.80;;;;;;5034590;28;20198;-68
2024/02/11 01:14:43;;;;;;;15.67;11.23;;;9.80;43.50;;;;;;5034714;28;20180;-68
2024/02/11 01:17:09;;;;;;;17.23;12.80;;;9.80;44.30;;;;;;5034426;28;20297;-68
2024/02/11 01:19:39;;;;;;;14.53;10.40;;;9.80;43.30;;;;;;5034274;28;20207;-69
2024/02/11 01:22:04;;;;;;;10.67;8.70;;;9.80;43.30;;;;;;5034397;28;20562;-68
2024/02/11 01:24:30;;;;;;;15.07;10.83;;;9.80;42.50;;;;;;5034248;28;20488;-68
2024/02/11 01:26:56;;;;;;;16.30;11.37;;;9.80;42.70;;;;;;5034443;28;20191;-68
2024/02/11 01:29:22;;;;;;;12.43;10.40;;;9.80;42.30;;;;;;5034118;28;20180;-68
2024/02/11 01:31:48;;;;;;;13.10;9.90;;;9.80;43.10;;;;;;5034265;28;20414;-68
2024/02/11 01:34:15;;;;;;;11.17;8.50;;;9.80;43.70;;;;;;5034160;28;20183;-68
2024/02/11 01:36:41;;;;;;;11.00;9.53;;;9.80;42.10;;;;;;5033692;28;20610;-69
2024/02/11 01:39:07;;;;;;;12.60;9.90;;;9.80;43.00;;;;;;5032413;28;20496;-68
2024/02/11 01:41:32;;;;;;;10.57;9.47;;;9.80;44.30;;;;;;5034049;28;20530;-68
2024/02/11 01:43:59;;;;;;;12.10;9.27;;;9.90;44.20;;;;;;5035401;28;20484;-68
2024/02/11 01:46:25;;;;;;;11.60;9.87;;;9.90;43.60;;;;;;5036288;28;20227;-68
2024/02/11 01:48:51;;;;;;;12.67;8.93;;;9.90;43.20;;;;;;5034104;28;20456;-69
2024/02/11 01:51:17;;;;;;;10.23;9.10;;;9.90;42.20;;;;;;5034644;28;20643;-69
2024/02/11 01:53:48;;;;;;;10.83;8.73;;;9.90;42.30;;;;;;5033718;28;20921;-68
2024/02/11 01:56:14;;;;;;;12.70;9.57;;;9.80;42.70;;;;;;5033757;28;20480;-68
2024/02/11 01:58:42;;;;;;;12.17;8.93;;;9.70;44.30;;;;;;5033573;28;20498;-68
2024/02/11 02:01:08;;;;;;;11.87;8.80;;;9.70;45.40;;;;;;5033822;28;20179;-68
2024/02/11 02:03:35;;;;;;;12.53;8.93;;;9.70;47.10;;;;;;5033674;28;20873;-69
2024/02/11 02:06:00;;;;;;;12.00;8.40;;;9.70;47.10;;;;;;5034051;28;20204;-69
2024/02/11 02:08:26;;;;;;;12.37;7.90;;;9.70;47.70;;;;;;5033322;28;20422;-68
2024/02/11 02:10:52;;;;;;;10.13;8.40;;;9.70;46.90;;;;;;5033375;28;20422;-68
2024/02/11 02:13:17;;;;;;;12.00;8.80;;;9.60;47.80;;;;;;5033478;28;20184;-70
2024/02/11 02:15:43;;;;;;;12.10;6.50;;;9.60;48.40;;;;;;5033170;28;20264;-67
2024/02/11 02:18:10;;;;;;;7.57;6.77;;;9.40;49.00;;;;;;5033219;28;20180;-68
2024/02/11 02:20:35;;;;;;;7.07;5.53;;;9.30;50.10;;;;;;5033294;28;20631;-68
2024/02/11 02:23:01;;;;;;;6.50;4.23;;;9.30;50.40;;;;;;5033295;28;20424;-67
2024/02/11 02:25:27;;;;;;;5.80;2.63;;;9.20;50.70;;;;;;5033199;28;20177;-67
2024/02/11 02:27:52;;;;;;;3.63;2.43;;;9.20;49.50;;;;;;5033106;28;20186;-68
2024/02/11 02:30:18;;;;;;;2.33;1.73;;;9.10;48.10;;;;;;5033204;28;20698;-69
2024/02/11 02:32:44;;;;;;;2.93;1.27;;;9.00;46.40;;;;;;5033157;28;20180;-68
2024/02/11 02:35:09;;;;;;;4.47;1.40;;;8.80;41.20;;;;;;5032966;28;20274;-67
2024/02/11 02:37:35;;;;;;;1.70;0.80;;;8.60;41.40;;;;;;5031281;28;20528;-68
2024/02/11 02:40:01;;;;;;;1.80;0.80;;;8.50;42.90;;;;;;5032726;28;20215;-68
2024/02/11 02:42:26;;;;;;;2.03;1.10;;;8.50;45.10;;;;;;5032933;28;20198;-67
2024/02/11 02:44:52;;;;;;;1.90;0.87;;;8.50;45.70;;;;;;5032892;28;20182;-67
2024/02/11 02:47:18;;;;;;;1.70;0.60;;;8.40;42.80;;;;;;5032587;28;20206;-67
2024/02/11 02:49:46;;;;;;;1.70;0.80;;;8.30;40.80;;;;;;5031746;28;20178;-66
2024/02/11 02:52:12;;;;;;;1.53;0.50;;;8.10;38.50;;;;;;5032830;28;20424;-68
2024/02/11 02:54:37;;;;;;;1.33;0.40;;;8.00;40.60;;;;;;5032663;28;20410;-67
2024/02/11 02:57:03;;;;;;;1.43;0.60;;;8.00;41.80;;;;;;5032450;28;20508;-67
2024/02/11 02:59:29;;;;;;;1.80;0.73;;;7.90;41.90;;;;;;5032740;28;20344;-68
2024/02/11 03:02:01;;;;;;;1.60;0.60;;;7.80;40.80;;;;;;5032670;28;20414;-68
2024/02/11 03:04:27;;;;;;;1.67;0.50;;;7.60;38.70;;;;;;5032295;28;20175;-68
2024/02/11 03:06:52;;;;;;;1.47;0.53;;;7.50;39.50;;;;;;5032487;28;20437;-68
2024/02/11 03:09:18;;;;;;;1.87;0.63;;;7.50;40.20;;;;;;5032269;28;20416;-67
2024/02/11 03:11:43;;;;;;;1.40;0.50;;;7.40;39.30;;;;;;5032307;28;20210;-68
2024/02/11 03:14:09;;;;;;;2.70;0.40;;;7.30;37.10;;;;;;5032302;28;20183;-67
2024/02/11 03:16:34;;;;;;;1.70;0.50;;;7.20;35.90;;;;;;5032076;28;20221;-67
2024/02/11 03:19:00;;;;;;;1.40;0.50;;;7.20;37.10;;;;;;5031932;28;20208;-68
2024/02/11 03:21:25;;;;;;;1.40;0.50;;;7.10;36.00;;;;;;5032060;28;20181;-67
2024/02/11 03:23:51;;;;;;;1.40;0.50;;;7.00;37.50;;;;;;5032512;28;20185;-68
2024/02/11 03:26:17;;;;;;;1.50;0.50;;;7.00;37.60;;;;;;5032033;28;20251;-67
2024/02/11 03:28:42;;;;;;;1.43;0.60;;;7.10;37.40;;;;;;5031665;28;20332;-68
2024/02/11 03:31:09;;;;;;;1.40;0.50;;;7.00;37.10;;;;;;5032282;28;20409;-68
2024/02/11 03:33:34;;;;;;;1.30;0.40;;;7.00;37.80;;;;;;5031810;28;20759;-66
2024/02/11 03:36:01;;;;;;;1.60;0.40;;;6.90;36.70;;;;;;5031791;28;20536;-68
2024/02/11 03:38:27;;;;;;;1.40;0.50;;;6.80;37.90;;;;;;5030183;28;20330;-67
2024/02/11 03:40:53;;;;;;;1.40;0.50;;;6.70;36.70;;;;;;5031800;28;21054;-68
2024/02/11 03:43:20;;;;;;;1.60;0.60;;;6.70;37.00;;;;;;5031813;28;20212;-68
2024/02/11 03:45:49;;;;;;;1.40;0.50;;;6.60;36.90;;;;;;5031713;28;20428;-68
2024/02/11 03:48:18;;;;;;;1.30;0.50;;;6.60;37.30;;;;;;5031498;28;20982;-68
2024/02/11 03:50:45;;;;;;;2.80;0.50;;;6.60;36.10;;;;;;5031481;28;20410;-67
2024/02/11 03:53:11;;;;;;;1.70;0.70;;;6.60;36.80;;;;;;5031672;28;20948;-68
2024/02/11 03:55:37;;;;;;;1.30;0.40;;;6.40;36.40;;;;;;5031445;28;20427;-67
2024/02/11 03:58:04;;;;;;;1.63;0.70;;;6.40;37.70;;;;;;5031391;28;20180;-69
2024/02/11 04:00:31;;;;;;;1.80;0.80;;;6.50;37.60;;;;;;5031499;28;20191;-68
2024/02/11 04:02:58;;;;;;;1.60;0.40;;;6.50;36.90;;;;;;5030257;28;20427;-68
2024/02/11 04:05:26;;;;;;;1.30;0.40;;;6.40;36.90;;;;;;5031715;28;20489;-67
2024/02/11 04:07:52;;;;;;;1.40;0.40;;;6.30;34.00;;;;;;5031379;28;20492;-68
2024/02/11 04:10:28;;;;;;;1.30;0.40;;;6.30;35.70;;;;;;5031500;28;20485;-68
2024/02/11 04:12:54;;;;;;;2.70;0.40;;;6.20;34.00;;;;;;5031494;28;20461;-67
2024/02/11 04:15:22;;;;;;;1.40;0.50;;;6.20;35.00;;;;;;5031863;28;20407;-68
2024/02/11 04:17:49;;;;;;;2.10;0.50;;;6.10;34.50;;;;;;5031302;28;20460;-68
2024/02/11 04:20:24;;;;;;;1.37;0.50;;;6.10;35.70;;;;;;5031727;28;20896;-68
2024/02/11 04:22:58;;;;;;;1.30;0.40;;;6.00;35.70;;;;;;5032014;28;20410;-69
2024/02/11 04:25:26;;;;;;;1.30;0.50;;;6.00;35.40;;;;;;5031568;28;20496;-68
2024/02/11 04:27:52;;;;;;;1.40;0.40;;;5.90;35.20;;;;;;5031265;28;21033;-69
2024/02/11 04:30:19;;;;;;;1.50;0.40;;;5.90;35.10;;;;;;5031693;28;20505;-69
2024/02/11 04:32:46;;;;;;;1.30;0.40;;;5.90;35.30;;;;;;5031544;28;20473;-69
2024/02/11 04:35:14;;;;;;;1.40;0.50;;;5.80;32.20;;;;;;5031408;28;20410;-69
2024/02/11 04:37:46;;;;;;;1.50;0.50;;;5.80;34.50;;;;;;5030991;28;20501;-68
2024/02/11 04:40:15;;;;;;;1.43;0.50;;;5.80;33.70;;;;;;5030976;28;20549;-68
2024/02/11 04:42:45;;;;;;;1.40;0.60;;;5.70;33.50;;;;;;5031157;28;20406;-68
2024/02/11 04:45:18;;;;;;;1.40;0.50;;;5.60;33.90;;;;;;5031132;28;20424;-68
2024/02/11 04:47:49;;;;;;;1.50;0.50;;;5.60;36.00;;;;;;5030619;28;20497;-68
2024/02/11 04:50:16;;;;;;;1.30;0.40;;;5.60;36.30;;;;;;5030719;28;20509;-68
2024/02/11 04:52:54;;;;;;;1.77;0.60;;;5.60;36.10;;;;;;5030199;28;20418;-69
2024/02/11 04:55:40;;;;;;;1.77;0.60;;;5.60;35.40;;;;;;5030111;28;20413;-69
2024/02/11 04:58:13;;;;;;;1.57;0.57;;;5.60;35.30;;;;;;5030626;28;20922;-68
2024/02/11 05:00:40;;;;;;;1.60;0.57;;;5.60;35.30;;;;;;5031056;28;20790;-68
2024/02/11 05:03:10;;;;;;;4.20;0.60;;;5.60;36.50;;;;;;5030900;28;20410;-69
2024/02/11 05:05:38;;;;;;;1.30;0.50;;;5.60;32.50;;;;;;5030779;28;20430;-68
2024/02/11 05:08:04;;;;;;;1.63;0.60;;;5.60;32.30;;;;;;5030773;28;20410;-69
2024/02/11 05:10:33;;;;;;;1.40;0.50;;;5.50;31.80;;;;;;5029490;28;20424;-68
2024/02/11 05:13:04;;;;;;;1.60;0.50;;;5.50;33.40;;;;;;5033760;28;20424;-68
2024/02/11 05:15:40;;;;;;;1.50;0.50;;;5.50;33.40;;;;;;5034225;28;20402;-68
2024/02/11 05:18:06;;;;;;;1.57;0.60;;;5.40;31.90;;;;;;5034207;28;20478;-68
2024/02/11 05:20:32;;;;;;;1.40;0.50;;;5.40;33.30;;;;;;5034242;28;20469;-68
2024/02/11 05:22:58;;;;;;;1.30;0.40;;;5.40;33.30;;;;;;5034262;28;20422;-68
2024/02/11 05:25:26;;;;;;;1.30;0.40;;;5.40;33.30;;;;;;5034306;28;20406;-68
2024/02/11 05:27:56;;;;;;;1.70;0.80;;;5.40;34.60;;;;;;5034057;28;20828;-68
2024/02/11 05:30:24;;;;;;;1.60;0.67;;;5.50;33.80;;;;;;5034059;28;20476;-67
2024/02/11 05:32:54;;;;;;;2.53;0.70;;;5.50;35.00;;;;;;5034192;28;20760;-68
2024/02/11 05:35:23;;;;;;;1.83;0.80;;;5.60;32.70;;;;;;5033997;28;20450;-68
2024/02/11 05:37:57;;;;;;;1.40;0.50;;;5.50;31.40;;;;;;5033780;28;20418;-68
2024/02/11 05:40:26;;;;;;;1.40;0.60;;;5.50;32.00;;;;;;5033962;28;20467;-68
2024/02/11 05:42:53;;;;;;;1.40;0.50;;;5.60;32.50;;;;;;5033989;28;20505;-68
2024/02/11 05:45:20;;;;;;;1.57;0.57;;;5.50;32.00;;;;;;5033834;28;20517;-67
2024/02/11 05:47:47;;;;;;;1.50;0.67;;;5.40;31.90;;;;;;5033769;28;20406;-67
2024/02/11 05:50:12;;;;;;;1.50;0.70;;;5.50;33.40;;;;;;5033646;28;20505;-68
2024/02/11 05:52:39;;;;;;;1.60;0.60;;;5.50;34.00;;;;;;5033937;28;21001;-68
2024/02/11 05:55:09;;;;;;;1.80;0.60;;;5.50;35.90;;;;;;5033679;28;20217;-68
2024/02/11 05:57:39;;;;;;;1.50;0.60;;;5.60;34.70;;;;;;5033298;28;20470;-68
2024/02/11 06:00:13;;;;;;;1.80;0.90;;;5.60;34.90;;;;;;5033474;28;20462;-67
2024/02/11 06:02:41;;;;;;;1.40;0.60;;;5.60;34.30;;;;;;5033673;28;20410;-67
2024/02/11 06:05:07;;;;;;;1.40;0.50;;;5.60;32.00;;;;;;5033445;28;20524;-68
2024/02/11 06:07:37;;;;;;;2.03;0.90;;;5.70;32.50;;;;;;5033216;28;20506;-68
2024/02/11 06:10:03;;;;;;;1.93;0.90;;;5.70;31.90;;;;;;5033108;28;20642;-68
2024/02/11 06:12:29;;;;;;;1.90;0.77;;;5.80;32.50;;;;;;5033276;28;20429;-68
2024/02/11 06:14:56;;;;;;;2.13;0.90;;;5.70;31.40;;;;;;5031959;28;20957;-69
2024/02/11 06:17:22;;;;;;;1.60;0.70;;;5.70;30.40;;;;;;5032819;28;20468;-68
2024/02/11 06:19:48;;;;;;;1.70;0.80;;;5.70;29.70;;;;;;5033127;28;20458;-68
2024/02/11 06:22:13;;;;;;;2.00;1.00;;;5.70;28.80;;;;;;5033061;28;20185;-69
2024/02/11 06:24:39;;;;;;;1.77;0.73;;;5.70;28.80;;;;;;5032990;28;20654;-67
2024/02/11 06:27:05;;;;;;;2.33;0.80;;;5.70;29.90;;;;;;5032813;28;20206;-70
2024/02/11 06:29:30;;;;;;;2.40;1.40;;;5.70;28.80;;;;;;5033193;28;20190;-67
2024/02/11 06:31:58;;;;;;;1.57;0.70;;;5.70;28.80;;;;;;5033094;28;20180;-68
2024/02/11 06:34:25;;;;;;;1.87;0.67;;;5.70;27.90;;;;;;5032959;28;20206;-68
2024/02/11 06:36:52;;;;;;;2.23;1.23;;;5.80;28.90;;;;;;5032954;28;20438;-67
2024/02/11 06:39:21;;;;;;;2.30;1.20;;;5.90;28.90;;;;;;5032860;28;20469;-66
2024/02/11 06:41:47;;;;;;;2.17;1.20;;;5.90;28.20;;;;;;5033451;28;20448;-68
2024/02/11 06:44:15;;;;;;;2.43;1.30;;;6.00;29.00;;;;;;5033208;28;20759;-67
2024/02/11 06:46:40;;;;;;;2.57;1.20;;;6.00;28.30;;;;;;5032778;28;20441;-68
2024/02/11 06:49:06;;;;;;;2.43;1.20;;;6.00;27.10;;;;;;5032608;28;20410;-67
2024/02/11 06:51:32;;;;;;;3.00;1.87;;;6.00;26.70;;;;;;5032480;28;20183;-67
2024/02/11 06:53:57;;;;;;;2.43;1.20;;;6.10;26.50;;;;;;5021353;28;20436;-68
2024/02/11 06:56:27;;;;;;;2.40;1.40;;;6.10;26.50;;;;;;5028381;28;20207;-67
2024/02/11 06:58:56;;;;;;;3.50;2.10;;;6.20;26.90;;;;;;5030928;28;20208;-68
2024/02/11 07:01:22;;;;;;;5.10;1.97;;;6.20;26.60;;;;;;5031801;28;20441;-67
2024/02/11 07:03:49;;;;;;;3.40;1.90;;;6.20;27.90;;;;;;5032225;28;20464;-67
2024/02/11 07:06:15;;;;;;;3.40;1.63;;;6.30;27.10;;;;;;5032055;28;20941;-67
2024/02/11 07:08:43;;;;;;;4.60;1.47;;;6.40;24.20;;;;;;5032063;28;20422;-68
2024/02/11 07:11:11;;;;;;;2.83;1.80;;;6.40;23.70;;;;;;5030283;28;20427;-67
2024/02/11 07:13:36;;;;;;;2.50;1.60;;;6.50;24.10;;;;;;5031318;28;20486;-68
2024/02/11 07:16:08;;;;;;;1.80;1.10;;;6.50;24.40;;;;;;5012302;28;20554;-67
2024/02/11 07:18:36;;;;;;;3.90;1.77;;;6.60;24.90;;;;;;5012127;28;20545;-68
2024/02/11 07:21:02;;;;;;;2.67;1.77;;;6.60;24.20;;;;;;5011157;28;20509;-67
2024/02/11 07:23:28;;;;;;;4.37;2.50;;;6.60;24.50;;;;;;5012213;28;20420;-68
2024/02/11 07:25:55;;;;;;;2.73;1.67;;;6.60;24.70;;;;;;5012514;28;20313;-67
2024/02/11 07:28:22;;;;;;;2.50;1.30;;;6.60;24.40;;;;;;5012245;28;20487;-67
2024/02/11 07:30:47;;;;;;;3.20;1.80;;;6.70;23.50;;;;;;5013291;28;20424;-67
2024/02/11 07:33:18;;;;;;;2.70;1.63;;;6.70;23.50;;;;;;5012179;28;20455;-68
2024/02/11 07:35:45;;;;;;;2.80;1.47;;;6.70;23.80;;;;;;5018537;28;20229;-68
2024/02/11 07:38:11;;;;;;;2.30;1.70;;;6.70;23.30;;;;;;5031919;28;20938;-69
2024/02/11 07:40:36;;;;;;;3.67;1.70;;;6.80;22.80;;;;;;5035985;28;20463;-67
2024/02/11 07:43:02;;;;;;;3.13;2.20;;;6.90;23.40;;;;;;5038284;28;20200;-67
2024/02/11 07:45:28;;;;;;;3.90;2.33;;;6.80;24.00;;;;;;5037639;28;20185;-68
2024/02/11 07:47:54;;;;;;;3.37;2.17;;;6.80;23.60;;;;;;5029305;28;20181;-70
2024/02/11 07:50:20;;;;;;;3.20;2.27;;;6.90;24.20;;;;;;5016844;28;20196;-67
2024/02/11 07:52:46;;;;;;;4.40;2.60;;;6.90;21.50;;;;;;5010515;28;20425;-67
2024/02/11 07:55:12;;;;;;;3.33;2.70;;;7.00;22.80;;;;;;5011871;28;20419;-67
2024/02/11 07:57:38;;;;;;;4.33;2.50;;;7.10;21.50;;;;;;5011082;28;20539;-73
2024/02/11 08:00:07;;;;;;;14.23;3.40;;;7.10;19.30;;;;;;5011445;28;20210;-69
2024/02/11 08:02:33;;;;;;;5.17;2.60;;;7.10;20.10;;;;;;5020971;28;20421;-71
2024/02/11 08:04:59;;;;;;;4.00;2.50;;;7.40;20.30;;;;;;5026847;28;20790;-69
2024/02/11 08:07:25;;;;;;;5.90;3.00;;;7.50;19.10;;;;;;5011513;28;20436;-69
2024/02/11 08:09:50;;;;;;;9.53;2.90;;;7.70;18.60;;;;;;5011677;28;20424;-69
2024/02/11 08:12:16;;;;;;;4.50;3.10;;;7.80;15.40;;;;;;5027186;28;20554;-69
2024/02/11 08:14:42;;;;;;;5.07;2.70;;;7.90;17.00;;;;;;5020629;28;20197;-68
2024/02/11 08:17:07;;;;;;;7.97;3.57;;;7.90;15.70;;;;;;5029950;28;20221;-69
2024/02/11 08:19:33;;;;;;;9.23;3.53;;;8.10;15.20;;;;;;5019679;28;20672;-69
2024/02/11 08:21:58;;;;;;;5.20;3.40;;;8.10;14.50;;;;;;5011597;28;20638;-69
2024/02/11 08:24:24;;;;;;;7.30;2.90;;;8.00;14.10;;;;;;5011694;28;20172;-69
2024/02/11 08:26:50;;;;;;;3.13;2.10;;;8.20;13.60;;;;;;5011539;28;20203;-70
2024/02/11 08:29:15;;;;;;;5.43;3.43;;;8.20;13.60;;;;;;5028051;28;20185;-70
2024/02/11 08:31:41;;;;;;;5.90;3.00;;;8.30;13.70;;;;;;5027694;28;20577;-69
2024/02/11 08:34:06;;;;;;;5.03;3.30;;;8.30;12.50;;;;;;5026887;28;20203;-69
2024/02/11 08:36:32;;;;;;;4.60;2.30;;;8.30;12.80;;;;;;5026864;28;20201;-69
2024/02/11 08:39:00;;;;;;;7.43;3.37;;;8.20;11.00;;;;;;5026358;28;20688;-71
2024/02/11 08:41:25;;;;;;;6.13;3.17;;;8.20;12.60;;;;;;5030451;28;20181;-66
2024/02/11 08:43:51;;;;;;;7.10;3.30;;;8.20;13.60;;;;;;5030830;28;20421;-69
2024/02/11 08:46:16;;;;;;;7.70;3.60;;;8.50;13.80;;;;;;5031131;28;20206;-71
2024/02/11 08:48:42;;;;;;;6.40;3.87;;;8.40;12.30;;;;;;5034930;28;20194;-68
2024/02/11 08:51:10;;;;;;;5.13;3.33;;;8.30;11.10;;;;;;5034899;28;20182;-68
2024/02/11 08:53:36;;;;;;;4.80;3.70;;;8.30;12.30;;;;;;5034278;28;20216;-67
2024/02/11 08:56:04;;;;;;;5.03;2.93;;;8.50;13.40;;;;;;5034805;28;20444;-68
2024/02/11 08:58:31;;;;;;;9.97;3.80;;;8.60;11.80;;;;;;5034667;28;20308;-68
2024/02/11 09:00:58;;;;;;;8.33;4.43;;;8.80;10.00;;;;;;5034743;28;20444;-68
2024/02/11 09:03:24;;;;;;;5.10;3.13;;;8.80;9.60;;;;;;5034665;28;20828;-67
2024/02/11 09:05:50;;;;;;;4.77;3.03;;;9.10;9.90;;;;;;5034540;28;20518;-69
2024/02/11 09:08:15;;;;;;;11.00;3.13;;;9.20;8.10;;;;;;5034413;28;20176;-68
2024/02/11 09:10:41;;;;;;;4.10;2.43;;;9.20;8.10;;;;;;5034302;28;20183;-68
2024/02/11 09:13:06;;;;;;;6.00;3.77;;;9.10;7.80;;;;;;5033278;28;20194;-68
2024/02/11 09:15:32;;;;;;;9.20;4.13;;;9.40;7.20;;;;;;5034218;28;20638;-68
2024/02/11 09:17:57;;;;;;;4.23;3.00;;;9.40;5.60;;;;;;5034453;28;20180;-67
2024/02/11 09:20:23;;;;;;;7.17;3.53;;;9.40;7.10;;;;;;5034791;28;20226;-69
2024/02/11 09:22:48;;;;;;;5.77;3.13;;;9.40;4.40;;;;;;5034828;28;20256;-68
2024/02/11 09:25:14;;;;;;;4.67;3.10;;;9.30;5.50;;;;;;5034424;28;20180;-68
2024/02/11 09:27:40;;;;;;;6.30;3.27;;;9.30;6.50;;;;;;5034251;28;20197;-68
2024/02/11 09:30:11;;;;;;;7.73;3.30;;;9.50;4.90;;;;;;5034236;28;20657;-68
2024/02/11 09:32:38;;;;;;;5.93;3.20;;;9.60;5.40;;;;;;5034618;28;20282;-67
2024/02/11 09:35:04;;;;;;;4.37;2.90;;;9.70;3.90;;;;;;5035123;28;20414;-67
2024/02/11 09:37:31;;;;;;;4.17;2.60;;;9.70;4.10;;;;;;5050513;28;20977;-67
2024/02/11 09:39:57;;;;;;;5.40;2.63;;;9.80;4.00;;;;;;5033999;28;20874;-68
2024/02/11 09:42:23;;;;;;;5.27;3.47;;;9.70;3.50;;;;;;5034126;28;20505;-67
2024/02/11 09:44:51;;;;;;;6.77;3.47;;;9.70;2.90;;;;;;5033998;28;20450;-68
2024/02/11 09:47:20;;;;;;;6.20;3.40;;;9.70;3.10;;;;;;5033726;28;20529;-68
2024/02/11 09:49:50;;;;;;;6.10;2.80;;;9.90;2.90;;;;;;5034031;28;20414;-68
2024/02/11 09:52:19;;;;;;;4.63;2.60;;;9.90;1.30;;;;;;5034291;28;20422;-68
2024/02/11 09:54:48;;;;;;;6.23;2.83;;;10.40;1.00;;;;;;5033844;28;20707;-68
2024/02/11 09:57:13;;;;;;;8.43;3.33;;;10.50;1.00;;;;;;5033251;28;20449;-68
2024/02/11 09:59:39;;;;;;;4.07;2.40;;;10.60;1.00;;;;;;5033627;28;20476;-68
2024/02/11 10:02:14;;;;;;;5.30;2.83;;;10.90;1.00;;;;;;5033533;28;20177;-68
2024/02/11 10:04:42;;;;;;;4.20;3.00;;;11.30;1.00;;;;;;5033550;28;20175;-68
2024/02/11 10:07:19;;;;;;;3.80;2.37;;;11.00;1.00;;;;;;5035467;28;20546;-67
2024/02/11 10:09:47;;;;;;;4.90;2.97;;;10.70;1.00;;;;;;5033560;28;20839;-68
2024/02/11 10:12:14;;;;;;;4.20;2.17;;;10.70;1.00;;;;;;5033657;28;20418;-68
2024/02/11 10:14:53;;;;;;;3.00;2.27;;;10.60;1.00;;;;;;5033565;28;20418;-69
2024/02/11 10:17:19;;;;;;;4.33;2.70;;;10.80;1.00;;;;;;5032073;28;20564;-69
2024/02/11 10:19:44;;;;;;;7.73;2.90;;;10.50;1.00;;;;;;5033165;28;20483;-68
2024/02/11 10:22:12;;;;;;;4.13;2.47;;;10.70;1.00;;;;;;5033387;28;20410;-67
2024/02/11 10:24:38;;;;;;;4.90;2.77;;;10.40;1.00;;;;;;5033036;28;20163;-68
2024/02/11 10:27:04;;;;;;;5.03;2.07;;;10.70;1.00;;;;;;5032767;28;20489;-68
2024/02/11 10:29:30;;;;;;;6.10;3.00;;;10.40;1.00;;;;;;5033121;28;20183;-68
2024/02/11 10:31:56;;;;;;;4.07;2.40;;;10.40;1.00;;;;;;5033104;28;20504;-69
2024/02/11 10:34:22;;;;;;;4.40;2.50;;;10.60;1.00;;;;;;5033087;28;20199;-68
2024/02/11 10:36:48;;;;;;;5.30;2.90;;;10.50;1.00;;;;;;5048213;28;20437;-68
2024/02/11 10:39:14;;;;;;;5.10;2.53;;;10.50;1.00;;;;;;5032768;28;21056;-68
2024/02/11 10:41:41;;;;;;;3.20;1.87;;;10.50;1.00;;;;;;5033186;28;20624;-68
2024/02/11 10:44:08;;;;;;;3.73;1.90;;;10.30;1.00;;;;;;5032949;28;20258;-68
2024/02/11 10:46:34;;;;;;;4.50;1.90;;;10.30;1.00;;;;;;5032956;28;20441;-68
2024/02/11 10:49:00;;;;;;;4.00;2.30;;;10.30;1.00;;;;;;5032521;28;20853;-68
2024/02/11 10:51:32;;;;;;;4.73;2.83;;;10.40;1.00;;;;;;5032883;28;20183;-68
2024/02/11 10:54:00;;;;;;;5.83;2.30;;;10.30;1.00;;;;;;5048080;28;20485;-68
2024/02/11 10:56:30;;;;;;;3.90;2.30;;;10.30;1.00;;;;;;5032496;28;20442;-68
2024/02/11 10:59:27;;;;;;;3.23;2.13;;;10.10;1.00;;;;;;5032369;28;20453;-68
2024/02/11 11:01:55;;;;;;;3.53;2.57;;;10.30;1.00;;;;;;5032339;28;20406;-69
2024/02/11 11:04:23;;;;;;;3.07;2.30;;;10.50;1.00;;;;;;5032520;28;20916;-68
2024/02/11 11:06:51;;;;;;;3.50;1.80;;;10.50;1.00;;;;;;5031059;28;20521;-68
2024/02/11 11:09:19;;;;;;;5.63;2.47;;;10.50;1.00;;;;;;5031404;28;20893;-68
2024/02/11 11:11:45;;;;;;;4.27;2.23;;;10.40;1.00;;;;;;5032419;28;20426;-68
2024/02/11 11:14:12;;;;;;;4.90;2.17;;;10.40;1.00;;;;;;5032225;28;20422;-68
2024/02/11 11:16:41;;;;;;;3.53;2.10;;;10.00;1.00;;;;;;5032742;28;20542;-67
2024/02/11 11:19:14;;;;;;;3.87;3.00;;;9.80;1.00;;;;;;5032268;28;20454;-68
2024/02/11 11:21:55;;;;;;;3.00;2.10;;;9.80;1.00;;;;;;5032215;28;20767;-69
2024/02/11 11:24:22;;;;;;;5.10;3.00;;;9.70;1.00;;;;;;5032088;28;20409;-68
2024/02/11 11:26:56;;;;;;;3.80;2.20;;;9.80;1.00;;;;;;5031789;28;20434;-68
2024/02/11 11:29:27;;;;;;;3.67;2.67;;;9.70;1.00;;;;;;5031828;28;20774;-68
2024/02/11 11:31:58;;;;;;;3.40;2.20;;;9.60;1.10;;;;;;5032143;28;20500;-67
2024/02/11 11:34:25;;;;;;;3.90;2.43;;;9.40;1.00;;;;;;5032034;28;20479;-68
2024/02/11 11:36:51;;;;;;;5.53;2.00;;;9.20;1.00;;;;;;5031693;28;20434;-68
2024/02/11 11:39:18;;;;;;;4.10;2.53;;;9.30;2.30;;;;;;5031284;28;20472;-67
2024/02/11 11:41:48;;;;;;;3.53;2.00;;;9.20;1.50;;;;;;5030087;28;20472;-68
2024/02/11 11:44:22;;;;;;;5.70;3.00;;;9.30;2.10;;;;;;5031832;28;20418;-67
2024/02/11 11:46:53;;;;;;;3.60;2.20;;;9.60;2.10;;;;;;5031179;28;20924;-67
2024/02/11 11:49:18;;;;;;;4.47;2.07;;;9.70;1.00;;;;;;5030438;28;20464;-69
2024/02/11 11:51:44;;;;;;;3.40;1.90;;;10.00;1.00;;;;;;5046972;28;20897;-68
2024/02/11 11:54:09;;;;;;;2.70;1.50;;;10.00;1.00;;;;;;5031753;28;20187;-69
2024/02/11 11:56:37;;;;;;;4.07;2.67;;;9.90;1.00;;;;;;5031843;28;20231;-69
2024/02/11 11:59:04;;;;;;;4.30;3.13;;;9.80;1.00;;;;;;5029882;28;20590;-68
2024/02/11 12:01:29;;;;;;;4.20;2.10;;;9.90;1.00;;;;;;5031617;28;20418;-68
2024/02/11 12:03:55;;;;;;;5.40;1.73;;;9.80;1.00;;;;;;5031569;28;20425;-68
2024/02/11 12:06:22;;;;;;;7.37;4.53;;;9.80;1.00;;;;;;5032757;28;20209;-69
2024/02/11 12:08:49;;;;;;;5.60;4.87;;;9.60;1.00;;;;;;5036494;28;20176;-68
2024/02/11 12:11:14;;;;;;;3.90;2.13;;;9.60;1.00;;;;;;5036781;28;20781;-68
2024/02/11 12:13:41;;;;;;;5.17;3.07;;;9.60;1.00;;;;;;5034900;28;20422;-68
2024/02/11 12:16:13;;;;;;;5.33;3.30;;;9.70;1.00;;;;;;5032508;28;20585;-69
2024/02/11 12:18:40;;;;;;;3.33;2.23;;;9.70;1.00;;;;;;5032057;28;20989;-69
2024/02/11 12:21:07;;;;;;;4.27;3.00;;;10.00;1.00;;;;;;5035495;28;20485;-69
2024/02/11 12:23:34;;;;;;;4.07;2.03;;;10.00;1.00;;;;;;5038880;28;20413;-69
2024/02/11 12:26:00;;;;;;;5.63;2.10;;;10.20;1.00;;;;;;5038355;28;20437;-68
2024/02/11 12:28:26;;;;;;;2.93;1.67;;;10.30;1.00;;;;;;5038079;28;20425;-68
2024/02/11 12:31:08;;;;;;;4.13;1.77;;;10.50;1.00;;;;;;5038197;28;20409;-69
2024/02/11 12:33:38;;;;;;;5.83;2.20;;;10.50;1.00;;;;;;5038047;28;20414;-68
2024/02/11 12:36:08;;;;;;;3.93;2.20;;;10.70;1.00;;;;;;5038256;28;20525;-68
2024/02/11 12:38:36;;;;;;;4.33;2.07;;;10.70;1.00;;;;;;5037804;28;20421;-68
2024/02/11 12:41:02;;;;;;;2.70;1.70;;;10.80;1.00;;;;;;5038211;28;20409;-68
2024/02/11 12:43:28;;;;;;;3.70;1.63;;;10.80;1.00;;;;;;5038121;28;20436;-67
2024/02/11 12:45:53;;;;;;;4.10;2.13;;;10.90;1.00;;;;;;5037716;28;20213;-68
2024/02/11 12:48:20;;;;;;;2.40;1.50;;;10.60;1.00;;;;;;5037805;28;20220;-68
2024/02/11 12:50:46;;;;;;;3.00;1.70;;;10.60;1.00;;;;;;5037905;28;20210;-67
2024/02/11 12:53:11;;;;;;;3.50;2.00;;;10.40;1.00;;;;;;5037713;28;20449;-68
2024/02/11 12:55:38;;;;;;;3.40;1.23;;;10.30;1.00;;;;;;5038216;28;20192;-69